weather.gov     
National Weather Service

Terminal Aerodrome Forecast
NWS Homepage
This page is being discontinued on March 12, 2014.
The same data is available at this site. Please update your bookmarks.
Thank you, and we apologize for the inconvenience.
Please send an email to SR-SRH.Webmaster@noaa.gov with any concerns.


Current Version
Previous Version:    01  02  03  04  05  06  07  08  09  10  11  12  13  14  15  16  17  18  19  20  21  22  23  24  25  26  27  28  29  
[Printable]
463
FTUS44 KCRP 021300 AAA
TAFALI
TAF AMD
KALI 021316Z 0213/0312 14004KT P6SM SCT015
     FM021500 15010G18KT P6SM VCSH SCT025
      TEMPO 0215/0217 -RA BKN025
     FM021900 13014G20KT P6SM VCTS BKN035CB
      TEMPO 0219/0223 3SM TSRA OVC030CB
     FM030100 12010KT P6SM SCT020 BKN120
     FM030900 13005KT P6SM BKN015 BKN100=


U.S. Dept. of Commerce
NOAA National Weather Service
1325 East West Highway
Silver Spring, MD 20910
E-mail: w-nws.webmaster@noaa.gov
Page last modified: May 16, 2007
NATIONAL WEATHER SERVICE: for Safety, for Work, for Fun - FOR LIFE